createdAt,value
2024-05-09T00:02:13.840Z,24
2024-05-09T00:07:44.336Z,24
2024-05-09T00:13:13.790Z,24
2024-05-09T00:18:44.355Z,24
2024-05-09T00:24:14.743Z,24
2024-05-09T00:29:45.186Z,24
2024-05-09T00:35:15.711Z,24
2024-05-09T00:40:45.285Z,24
2024-05-09T00:46:15.671Z,24
2024-05-09T00:51:46.129Z,24
2024-05-09T00:57:15.632Z,24
2024-05-09T01:02:58.627Z,24
2024-05-09T01:08:16.776Z,24
2024-05-09T01:13:46.099Z,24
2024-05-09T01:19:16.643Z,24
2024-05-09T01:24:47.036Z,24
2024-05-09T01:30:21.030Z,24
2024-05-09T01:35:47.002Z,23.9
2024-05-09T01:41:16.548Z,23.9
2024-05-09T01:46:47.008Z,23.9
2024-05-09T01:52:17.446Z,23.9
2024-05-09T01:57:45.989Z,23.9
2024-05-09T02:03:17.804Z,23.9
2024-05-09T02:08:46.922Z,23.9
2024-05-09T02:14:16.529Z,24
2024-05-09T02:25:17.480Z,23.9
2024-05-09T02:30:47.934Z,23.9
2024-05-09T02:36:17.419Z,23.9
2024-05-09T02:41:47.963Z,23.9
2024-05-09T02:47:17.487Z,23.9
2024-05-09T02:52:47.899Z,23.9
2024-05-09T02:58:18.347Z,23.9
2024-05-09T03:03:47.960Z,23.9
2024-05-09T03:09:18.325Z,23.9
2024-05-09T03:14:48.819Z,23.9
2024-05-09T03:20:23.765Z,23.9
2024-05-09T03:25:48.801Z,23.9
2024-05-09T03:31:18.260Z,23.9
2024-05-09T03:36:48.730Z,23.9
2024-05-09T03:47:49.015Z,23.9
2024-05-09T03:53:19.374Z,23.9
2024-05-09T03:58:49.764Z,23.9
2024-05-09T04:04:19.306Z,23.9
2024-05-09T04:09:49.719Z,23.9
2024-05-09T04:15:20.193Z,23.9
2024-05-09T04:20:49.797Z,23.9
2024-05-09T04:26:20.206Z,23.9
2024-05-09T04:31:50.681Z,23.8
2024-05-09T04:37:20.121Z,23.8
2024-05-09T04:42:55.355Z,23.8
2024-05-09T04:48:21.278Z,23.8
2024-05-09T04:53:50.610Z,23.8
2024-05-09T04:59:21.063Z,23.8
2024-05-09T05:04:51.860Z,23.8
2024-05-09T05:10:25.548Z,23.8
2024-05-09T05:15:55.070Z,23.8
2024-05-09T05:21:21.281Z,23.8
2024-05-09T05:26:51.568Z,23.8
2024-05-09T05:32:22.296Z,23.8
2024-05-09T05:37:52.527Z,23.8
2024-05-09T05:43:22.021Z,23.8
2024-05-09T05:48:52.589Z,23.8
2024-05-09T05:59:52.440Z,23.7
2024-05-09T06:05:24.258Z,23.6
2024-05-09T06:10:53.541Z,23.5
2024-05-09T06:16:22.908Z,23.5
2024-05-09T06:21:53.346Z,23.5
2024-05-09T06:27:22.850Z,23.5
2024-05-09T06:32:53.495Z,23.5
2024-05-09T06:38:23.872Z,23.5
2024-05-09T06:43:53.450Z,23.5
2024-05-09T06:49:23.918Z,23.5
2024-05-09T06:54:54.257Z,23.5
2024-05-09T07:00:30.749Z,23.4
2024-05-09T07:05:54.267Z,23.4
2024-05-09T07:11:24.740Z,23.4
2024-05-09T07:16:54.300Z,23.4
2024-05-09T07:22:24.659Z,23.4
2024-05-09T07:27:55.149Z,23.4
2024-05-09T07:33:25.058Z,23.4
2024-05-09T07:38:55.120Z,23.4
2024-05-09T07:44:25.659Z,23.4
2024-05-09T08:11:56.037Z,23.4
2024-05-09T08:17:26.703Z,23.4
2024-05-09T08:22:55.958Z,23.4
2024-05-09T08:28:27.204Z,23.4
2024-05-09T08:33:56.061Z,23.4
2024-05-09T08:44:56.874Z,23.4
2024-05-09T08:50:32.525Z,23.4
2024-05-09T09:01:27.474Z,23.4
2024-05-09T09:06:58.303Z,23.4
2024-05-09T09:12:27.383Z,23.5
2024-05-09T09:17:57.918Z,23.4
2024-05-09T09:23:27.246Z,23.4
2024-05-09T09:28:57.730Z,23.5
2024-05-09T09:34:28.371Z,23.5
2024-05-09T09:39:57.769Z,23.5
2024-05-09T09:45:28.203Z,23.5
2024-05-09T09:50:58.631Z,23.5
2024-05-09T09:56:28.109Z,23.5
2024-05-09T10:01:58.882Z,23.5
2024-05-09T10:07:29.113Z,23.5
2024-05-09T10:12:58.719Z,23.5
2024-05-09T10:18:31.179Z,23.5
2024-05-09T10:23:59.519Z,23.5
2024-05-09T10:29:28.998Z,23.5
2024-05-09T10:34:59.499Z,23.5
2024-05-09T10:40:31.724Z,23.5
2024-05-09T10:47:05.594Z,23.6
2024-05-09T10:52:36.094Z,23.6
2024-05-09T10:58:06.513Z,23.6
2024-05-09T11:03:36.472Z,23.6
2024-05-09T11:09:06.459Z,23.6
2024-05-09T11:14:36.941Z,23.6
2024-05-09T11:25:36.891Z,23.6
2024-05-09T11:31:08.031Z,23.7
2024-05-09T11:36:36.880Z,23.7
2024-05-09T11:42:07.366Z,23.7
2024-05-09T11:47:37.889Z,23.7
2024-05-09T11:53:07.306Z,23.7
2024-05-09T11:58:37.774Z,23.7
2024-05-09T12:04:09.065Z,23.7
2024-05-09T12:09:37.832Z,23.7
2024-05-09T12:15:08.236Z,23.7
2024-05-09T12:20:40.126Z,23.7
2024-05-09T12:26:08.219Z,23.7
2024-05-09T12:31:38.728Z,23.8
2024-05-09T12:37:09.217Z,23.8
2024-05-09T12:42:38.736Z,23.8
2024-05-09T12:48:13.929Z,23.8
2024-05-09T12:53:39.613Z,23.8
2024-05-09T12:59:09.084Z,23.8
2024-05-09T13:04:46.466Z,23.8
2024-05-09T13:10:13.913Z,23.8
2024-05-09T13:15:39.670Z,23.8
2024-05-09T13:21:10.035Z,23.8
2024-05-09T13:26:40.535Z,23.8
2024-05-09T13:32:11.054Z,23.8
2024-05-09T13:37:40.493Z,23.8
2024-05-09T13:43:10.987Z,23.8
2024-05-09T13:48:41.642Z,23.8
2024-05-09T13:54:10.938Z,23.8
2024-05-09T14:00:49.191Z,23.8
2024-05-09T14:06:17.092Z,23.8
2024-05-09T14:11:47.591Z,23.8
2024-05-09T14:17:18.237Z,23.8
2024-05-09T14:22:47.600Z,23.8
2024-05-09T14:29:24.146Z,23.8
2024-05-09T14:34:54.685Z,23.8
2024-05-09T14:45:54.719Z,23.8
2024-05-09T14:51:25.067Z,23.8
2024-05-09T14:56:55.539Z,23.8
2024-05-09T15:02:25.198Z,23.8
2024-05-09T15:07:55.517Z,23.9
2024-05-09T15:13:26.252Z,23.8
2024-05-09T15:18:55.799Z,23.8
2024-05-09T15:24:25.944Z,23.9
2024-05-09T15:29:56.418Z,23.8
2024-05-09T15:35:25.986Z,23.9
2024-05-09T15:40:56.504Z,23.9
2024-05-09T15:46:26.905Z,23.8
2024-05-09T15:51:56.398Z,23.8
2024-05-09T15:57:26.866Z,23.8
2024-05-09T16:02:57.376Z,23.8
2024-05-09T16:08:26.823Z,23.8
2024-05-09T16:13:57.288Z,23.8
2024-05-09T16:19:38.664Z,23.8
2024-05-09T16:24:57.338Z,23.8
2024-05-09T16:30:34.128Z,23.8
2024-05-09T16:35:58.219Z,23.8
2024-05-09T16:41:27.714Z,23.8
2024-05-09T16:46:58.239Z,23.8
2024-05-09T16:52:28.690Z,23.9
2024-05-09T16:57:59.291Z,23.8
2024-05-09T17:03:29.741Z,23.8
2024-05-09T17:14:29.639Z,23.8
2024-05-09T17:20:00.254Z,23.8
2024-05-09T17:25:29.779Z,23.9
2024-05-09T17:31:00.252Z,23.8
2024-05-09T17:36:30.734Z,23.8
2024-05-09T17:42:04.002Z,23.9
2024-05-09T17:47:30.705Z,23.9
2024-05-09T17:53:01.174Z,23.8
2024-05-09T17:58:31.708Z,23.8
2024-05-09T18:04:01.324Z,23.8
2024-05-09T18:09:31.712Z,23.8
2024-05-09T18:15:02.189Z,23.8
2024-05-09T18:20:40.308Z,23.8
2024-05-09T18:26:02.180Z,23.8
2024-05-09T18:31:32.707Z,23.8
2024-05-09T18:37:04.449Z,23.8
2024-05-09T18:42:32.669Z,23.8
2024-05-09T18:48:03.258Z,23.8
2024-05-09T18:53:32.565Z,23.8
2024-05-09T18:59:03.102Z,23.8
2024-05-09T19:04:32.718Z,23.8
2024-05-09T19:10:03.406Z,23.8
2024-05-09T19:15:33.706Z,23.8
2024-05-09T19:21:03.978Z,23.8
2024-05-09T19:26:33.484Z,23.7
2024-05-09T19:32:04.063Z,23.7
2024-05-09T19:37:33.490Z,23.7
2024-05-09T19:43:05.593Z,23.7
2024-05-09T19:49:40.637Z,23.7
2024-05-09T19:55:10.131Z,23.8
2024-05-09T20:00:42.814Z,23.8
2024-05-09T20:06:10.953Z,23.8
2024-05-09T20:11:40.530Z,23.8
2024-05-09T20:17:10.947Z,23.9
2024-05-09T20:22:41.436Z,23.9
2024-05-09T20:28:11.315Z,23.9
2024-05-09T20:33:41.459Z,23.9
2024-05-09T20:44:41.360Z,24.1
2024-05-09T20:50:20.317Z,24.1
2024-05-09T20:55:41.485Z,24.2
2024-05-09T21:01:12.064Z,24.2
2024-05-09T21:06:41.464Z,24.2
2024-05-09T21:12:11.924Z,24.2
2024-05-09T21:17:42.485Z,24.2
2024-05-09T21:23:11.876Z,24.2
2024-05-09T21:28:42.346Z,24.2
2024-05-09T21:34:12.893Z,24.2
2024-05-09T21:39:42.328Z,24.2
2024-05-09T21:45:12.774Z,24.2
2024-05-09T21:50:43.330Z,24.2
2024-05-09T21:56:12.874Z,24.2
2024-05-09T22:01:43.468Z,24.2
2024-05-09T22:07:12.986Z,24.2
2024-05-09T22:12:43.396Z,24.2
2024-05-09T22:18:13.905Z,24.2
2024-05-09T22:23:43.310Z,24.2
2024-05-09T22:29:13.804Z,24.2
2024-05-09T22:34:44.484Z,24.2
2024-05-09T22:40:20.738Z,24.2
2024-05-09T22:45:44.543Z,24.2
2024-05-09T22:51:14.853Z,24.2
2024-05-09T22:56:44.373Z,24.2
2024-05-09T23:02:14.945Z,24.2
2024-05-09T23:07:45.333Z,24.2
2024-05-09T23:13:14.871Z,24.2
2024-05-09T23:18:45.422Z,24.2
2024-05-09T23:29:45.256Z,24.2
2024-05-09T23:35:15.717Z,24.2
2024-05-09T23:40:46.245Z,24.3
2024-05-09T23:46:15.705Z,24.3
2024-05-09T23:51:46.178Z,24.3
2024-05-09T23:57:15.672Z,24.3
